Flugplatz Trier-Föhren

Für EDRT sind keine METAR/TAF Berichte vorhanden.
Es werden die Flugwettermeldungen vom Flugplatz Spangdahlem Air Base in 14 km Entfernung angezeigt.

Bericht für ETAD

vom 31.05. um 02:56 UTC

Wind 5 kt aus 70°

Sichtweite 10 km oder mehr

keine Wolken

Temperatur 9.2°C

Taupunkt 2.1°C

Luftfeuchtigkeit 61%

Luftdruck 1021 hPa

ETAD 310256Z AUTO 07005KT 9999 CLR 09/02 A3015 RMK AO2 SLP196 T00920021 57004

Prognose für ETAD

vom 30.05. um 18:00 UTC

Am 30.05. zwischen 18:00 UTC und 05:00 UTC

Wind 12 kt aus 60° in Böen 18 kt

Sichtweite 10 km oder mehr

aufgelockert bewölkt in 6000 ft


Zwischen 05:00 und 06:00 UTC übergehend zu

Wind 10 kt aus 70° in Böen 18 kt

Sichtweite 10 km oder mehr

aufgelockert bewölkt in 4000 ft

TAF AMD ETAD 301800Z 3018/3120 06012G18KT 9999 SCT060 QNH3014INS WND 08009KT AFT 3021 BECMG 3105/3106 07010G18KT 9999 SCT040 QNH3016INS TX19/3018Z TN09/3104Z LAST NO AMDS AFT 3018 NEXT 3110
Impressum